createdAt,value
2022-08-11T00:02:01.917Z,19.22
2022-08-11T00:04:37.841Z,19.22
2022-08-11T00:07:07.351Z,19.21
2022-08-11T00:09:39.469Z,19.21
2022-08-11T00:12:16.132Z,19.22
2022-08-11T00:14:44.839Z,19.21
2022-08-11T00:17:15.889Z,19.20
2022-08-11T00:20:13.866Z,19.19
2022-08-11T00:22:41.793Z,19.17
2022-08-11T00:25:16.659Z,19.13
2022-08-11T00:27:45.588Z,19.09
2022-08-11T00:30:14.992Z,19.05
2022-08-11T00:32:52.314Z,19.01
2022-08-11T00:35:55.222Z,18.95
2022-08-11T00:38:27.539Z,18.88
2022-08-11T00:41:16.056Z,18.83
2022-08-11T00:44:23.883Z,18.78
2022-08-11T00:47:13.697Z,18.72
2022-08-11T00:50:17.987Z,18.68
2022-08-11T00:53:16.370Z,18.63
2022-08-11T00:56:18.861Z,18.59
2022-08-11T00:59:39.235Z,18.56
2022-08-11T01:02:21.010Z,18.53
2022-08-11T01:05:38.567Z,18.50
2022-08-11T01:08:55.777Z,18.46
2022-08-11T01:11:55.421Z,18.46
2022-08-11T01:14:52.809Z,18.44
2022-08-11T01:18:28.740Z,18.39
2022-08-11T01:21:18.076Z,18.34
2022-08-11T01:24:46.695Z,18.31
2022-08-11T01:27:44.581Z,18.25
2022-08-11T01:30:56.574Z,18.24
2022-08-11T01:34:01.405Z,18.22
2022-08-11T01:37:14.400Z,18.17
2022-08-11T01:40:12.817Z,18.13
2022-08-11T01:43:10.766Z,18.12
2022-08-11T01:46:10.902Z,18.15
2022-08-11T01:50:06.931Z,18.15
2022-08-11T01:52:33.290Z,18.12
2022-08-11T01:55:37.278Z,18.05
2022-08-11T01:58:16.935Z,18.03
2022-08-11T02:01:20.590Z,18.05
2022-08-11T02:04:26.891Z,18.05
2022-08-11T02:07:18.689Z,17.99
2022-08-11T02:10:35.379Z,17.90
2022-08-11T02:13:36.557Z,17.86
2022-08-11T02:16:30.846Z,17.82
2022-08-11T02:20:00.538Z,17.78
2022-08-11T02:23:10.013Z,17.71
2022-08-11T02:25:59.994Z,17.64
2022-08-11T02:28:38.992Z,17.60
2022-08-11T02:32:15.425Z,17.57
2022-08-11T02:35:00.764Z,17.50
2022-08-11T02:37:34.067Z,17.45
2022-08-11T02:40:34.387Z,17.42
2022-08-11T02:43:50.768Z,17.37
2022-08-11T02:46:44.416Z,17.30
2022-08-11T02:50:06.331Z,17.27
2022-08-11T02:53:22.627Z,17.22
2022-08-11T02:56:10.866Z,17.17
2022-08-11T02:59:13.030Z,17.12
2022-08-11T03:02:30.283Z,17.09
2022-08-11T03:04:57.598Z,17.03
2022-08-11T03:07:46.736Z,17.02
2022-08-11T03:10:25.623Z,16.97
2022-08-11T03:13:39.766Z,16.92
2022-08-11T03:16:47.149Z,16.85
2022-08-11T03:19:43.620Z,16.82
2022-08-11T03:22:40.219Z,16.78
2022-08-11T03:25:34.698Z,16.77
2022-08-11T03:28:35.398Z,16.72
2022-08-11T03:31:29.509Z,16.69
2022-08-11T03:34:10.380Z,16.65
2022-08-11T03:37:17.004Z,16.63
2022-08-11T03:40:03.441Z,16.60
2022-08-11T03:42:43.572Z,16.57
2022-08-11T03:45:57.276Z,16.55
2022-08-11T03:49:07.442Z,16.54
2022-08-11T03:52:11.480Z,16.50
2022-08-11T03:54:52.465Z,16.47
2022-08-11T03:58:02.387Z,16.45
2022-08-11T04:00:55.861Z,16.42
2022-08-11T04:03:57.729Z,16.39
2022-08-11T04:07:05.215Z,16.36
2022-08-11T04:10:24.058Z,16.34
2022-08-11T04:13:18.807Z,16.30
2022-08-11T04:16:11.609Z,16.28
2022-08-11T04:19:11.152Z,16.27
2022-08-11T04:22:17.063Z,16.24
2022-08-11T04:25:05.682Z,16.22
2022-08-11T04:28:18.892Z,16.20
2022-08-11T04:31:50.327Z,16.17
2022-08-11T04:34:41.269Z,16.17
2022-08-11T04:37:36.366Z,16.15
2022-08-11T04:40:25.612Z,16.15
2022-08-11T04:43:36.739Z,16.15
2022-08-11T04:46:52.023Z,16.13
2022-08-11T04:50:32.558Z,16.14
2022-08-11T04:53:44.196Z,16.14
2022-08-11T04:56:43.208Z,16.18
2022-08-11T05:00:32.157Z,16.21
2022-08-11T05:03:22.151Z,16.26
2022-08-11T05:06:24.783Z,16.30
2022-08-11T05:09:27.748Z,16.33
2022-08-11T05:12:29.896Z,16.37
2022-08-11T05:15:18.273Z,16.41
2022-08-11T05:18:31.978Z,16.46
2022-08-11T05:21:28.516Z,16.52
2022-08-11T05:24:39.363Z,16.57
2022-08-11T05:27:30.985Z,16.63
2022-08-11T05:30:24.458Z,16.70
2022-08-11T05:33:49.356Z,16.77
2022-08-11T05:36:37.387Z,16.82
2022-08-11T05:39:36.716Z,16.88
2022-08-11T05:42:29.813Z,16.94
2022-08-11T05:46:02.694Z,17.03
2022-08-11T05:48:40.907Z,17.08
2022-08-11T05:51:30.540Z,17.15
2022-08-11T05:54:28.414Z,17.22
2022-08-11T05:57:01.191Z,17.32
2022-08-11T05:59:31.306Z,17.39
2022-08-11T06:02:08.657Z,17.48
2022-08-11T06:04:38.212Z,17.55
2022-08-11T06:07:09.795Z,17.64
2022-08-11T06:09:46.802Z,17.70
2022-08-11T06:12:22.714Z,17.79
2022-08-11T06:14:56.003Z,17.89
2022-08-11T06:17:27.656Z,18.01
2022-08-11T06:20:13.083Z,18.12
2022-08-11T06:22:52.346Z,18.24
2022-08-11T06:25:21.592Z,18.38
2022-08-11T06:27:56.442Z,18.55
2022-08-11T06:30:40.810Z,18.72
2022-08-11T06:33:29.586Z,18.86
2022-08-11T06:36:14.042Z,19.03
2022-08-11T06:39:20.288Z,19.22
2022-08-11T06:42:10.752Z,19.40
2022-08-11T06:45:07.326Z,19.60
2022-08-11T06:47:36.336Z,19.78
2022-08-11T06:50:28.878Z,19.95
2022-08-11T06:52:57.287Z,20.16
2022-08-11T06:55:57.615Z,20.35
2022-08-11T06:58:51.681Z,20.60
2022-08-11T07:01:49.610Z,20.84
2022-08-11T07:04:48.090Z,21.07
2022-08-11T07:08:33.959Z,21.28
2022-08-11T07:12:07.063Z,21.55
2022-08-11T07:14:58.933Z,21.81
2022-08-11T07:17:34.981Z,22.03
2022-08-11T07:20:25.183Z,22.23
2022-08-11T07:23:17.968Z,22.43
2022-08-11T07:26:11.546Z,22.63
2022-08-11T07:28:56.083Z,22.84
2022-08-11T07:31:31.667Z,23.04
2022-08-11T07:34:28.114Z,23.23
2022-08-11T07:37:00.185Z,23.43
2022-08-11T07:39:33.266Z,23.60
2022-08-11T07:42:07.788Z,23.76
2022-08-11T07:44:56.932Z,23.90
2022-08-11T07:48:04.810Z,24.12
2022-08-11T07:50:56.014Z,24.46
2022-08-11T07:53:24.884Z,24.74
2022-08-11T07:55:56.049Z,24.87
2022-08-11T07:58:53.375Z,24.95
2022-08-11T08:01:45.432Z,25.16
2022-08-11T08:04:35.966Z,25.37
2022-08-11T08:07:24.501Z,25.58
2022-08-11T08:10:15.877Z,25.77
2022-08-11T08:13:03.535Z,25.91
2022-08-11T08:15:50.403Z,25.97
2022-08-11T08:18:26.675Z,25.99
2022-08-11T08:21:12.018Z,26.14
2022-08-11T08:23:44.397Z,26.31
2022-08-11T08:26:35.079Z,26.41
2022-08-11T08:29:26.549Z,26.62
2022-08-11T08:31:56.684Z,26.83
2022-08-11T08:34:25.401Z,27.00
2022-08-11T08:36:53.458Z,27.07
2022-08-11T08:39:22.857Z,27.11
2022-08-11T08:41:57.724Z,27.15
2022-08-11T08:44:38.445Z,27.16
2022-08-11T08:47:16.838Z,27.22
2022-08-11T08:50:19.966Z,27.29
2022-08-11T08:52:58.089Z,27.36
2022-08-11T08:55:29.081Z,27.46
2022-08-11T08:58:00.584Z,27.60
2022-08-11T09:00:42.586Z,27.69
2022-08-11T09:03:38.930Z,27.70
2022-08-11T09:05:58.952Z,27.75
2022-08-11T09:08:27.608Z,27.85
2022-08-11T09:11:16.123Z,28.06
2022-08-11T09:13:46.806Z,28.35
2022-08-11T09:16:34.936Z,28.51
2022-08-11T09:19:03.838Z,28.58
2022-08-11T09:21:46.416Z,28.66
2022-08-11T09:24:38.453Z,28.68
2022-08-11T09:27:10.759Z,28.74
2022-08-11T09:29:38.732Z,28.82
2022-08-11T09:32:08.364Z,28.91
2022-08-11T09:34:39.274Z,29.00
2022-08-11T09:37:53.582Z,29.11
2022-08-11T09:40:32.468Z,29.19
2022-08-11T09:43:28.692Z,29.22
2022-08-11T09:45:59.200Z,29.23
2022-08-11T09:48:32.663Z,29.29
2022-08-11T09:51:02.390Z,29.25
2022-08-11T09:53:40.942Z,29.26
2022-08-11T09:56:38.070Z,29.41
2022-08-11T09:59:06.842Z,29.54
2022-08-11T10:01:55.134Z,29.66
2022-08-11T10:04:48.437Z,29.72
2022-08-11T10:07:20.394Z,29.69
2022-08-11T10:10:02.213Z,29.76
2022-08-11T10:12:37.251Z,29.89
2022-08-11T10:15:31.461Z,29.98
2022-08-11T10:18:26.770Z,30.02
2022-08-11T10:21:06.899Z,30.05
2022-08-11T10:24:00.662Z,30.13
2022-08-11T10:26:53.714Z,30.17
2022-08-11T10:29:56.490Z,30.18
2022-08-11T10:32:59.436Z,30.20
2022-08-11T10:35:31.538Z,30.28
2022-08-11T10:38:08.621Z,30.40
2022-08-11T10:40:40.859Z,30.59
2022-08-11T10:43:14.057Z,30.81
2022-08-11T10:46:05.433Z,30.98
2022-08-11T10:48:38.822Z,31.02
2022-08-11T10:51:14.187Z,31.04
2022-08-11T10:54:05.236Z,31.15
2022-08-11T10:56:56.032Z,31.28
2022-08-11T10:59:28.023Z,31.41
2022-08-11T11:01:56.573Z,31.58
2022-08-11T11:05:31.451Z,31.71
2022-08-11T11:08:32.891Z,31.81
2022-08-11T11:11:06.385Z,31.93
2022-08-11T11:13:55.554Z,31.94
2022-08-11T11:16:44.980Z,31.92
2022-08-11T11:19:19.260Z,31.98
2022-08-11T11:22:15.483Z,32.07
2022-08-11T11:25:12.787Z,32.16
2022-08-11T11:27:53.394Z,32.27
2022-08-11T11:30:27.087Z,32.43
2022-08-11T11:34:06.462Z,32.50
2022-08-11T11:36:50.633Z,32.41
2022-08-11T11:39:23.778Z,32.40
2022-08-11T11:41:57.026Z,32.39
2022-08-11T11:44:25.981Z,32.46
2022-08-11T11:46:57.913Z,32.50
2022-08-11T11:49:29.695Z,32.43
2022-08-11T11:52:00.130Z,32.45
2022-08-11T11:54:33.925Z,32.48
2022-08-11T11:57:22.835Z,32.51
2022-08-11T12:00:11.901Z,32.53
2022-08-11T12:02:41.213Z,32.56
2022-08-11T12:05:11.227Z,32.57
2022-08-11T12:08:05.091Z,32.56
2022-08-11T12:10:47.202Z,32.40
2022-08-11T12:13:37.276Z,32.42
2022-08-11T12:16:34.517Z,32.58
2022-08-11T12:19:00.270Z,32.67
2022-08-11T12:21:29.671Z,32.56
2022-08-11T12:24:19.740Z,32.55
2022-08-11T12:27:14.848Z,32.70
2022-08-11T12:29:41.232Z,32.84
2022-08-11T12:32:15.338Z,32.95
2022-08-11T12:34:44.848Z,32.98
2022-08-11T12:37:16.422Z,33.06
2022-08-11T12:40:42.668Z,33.14
2022-08-11T12:43:36.913Z,33.22
2022-08-11T12:46:16.768Z,33.27
2022-08-11T12:49:09.931Z,33.25
2022-08-11T12:52:13.614Z,33.24
2022-08-11T12:54:54.328Z,33.20
2022-08-11T12:57:58.262Z,33.24
2022-08-11T13:00:46.929Z,33.32
2022-08-11T13:03:33.894Z,33.39
2022-08-11T13:06:04.541Z,33.38
2022-08-11T13:08:36.938Z,33.47
2022-08-11T13:11:24.338Z,33.50
2022-08-11T13:13:57.733Z,33.51
2022-08-11T13:16:54.530Z,33.47
2022-08-11T13:19:24.133Z,33.55
2022-08-11T13:21:53.393Z,33.56
2022-08-11T13:24:23.161Z,33.54
2022-08-11T13:26:51.712Z,33.62
2022-08-11T13:29:26.527Z,33.65
2022-08-11T13:31:58.251Z,33.75
2022-08-11T13:34:28.723Z,33.87
2022-08-11T13:37:00.987Z,34.04
2022-08-11T13:39:32.136Z,34.25
2022-08-11T13:42:02.530Z,34.37
2022-08-11T13:44:35.974Z,34.33
2022-08-11T13:47:07.851Z,34.29
2022-08-11T13:49:39.540Z,34.26
2022-08-11T13:52:14.151Z,34.25
2022-08-11T13:54:44.169Z,34.20
2022-08-11T13:58:06.271Z,34.12
2022-08-11T14:00:13.324Z,34.13
2022-08-11T14:02:55.675Z,34.25
2022-08-11T14:05:29.371Z,34.39
2022-08-11T14:08:07.678Z,34.51
2022-08-11T14:10:39.670Z,34.60
2022-08-11T14:13:42.199Z,34.58
2022-08-11T14:16:42.889Z,34.49
2022-08-11T14:19:14.461Z,34.44
2022-08-11T14:22:08.641Z,34.44
2022-08-11T14:24:49.720Z,34.45
2022-08-11T14:27:39.089Z,34.46
2022-08-11T14:30:27.332Z,34.55
2022-08-11T14:32:57.292Z,34.61
2022-08-11T14:35:28.789Z,34.70
2022-08-11T14:37:59.154Z,34.74
2022-08-11T14:40:45.736Z,34.76
2022-08-11T14:44:04.865Z,34.74
2022-08-11T14:46:38.693Z,34.73
2022-08-11T14:49:06.762Z,34.77
2022-08-11T14:51:35.117Z,34.85
2022-08-11T14:54:22.385Z,34.92
2022-08-11T14:56:50.250Z,34.85
2022-08-11T14:59:17.910Z,34.81
2022-08-11T15:02:04.293Z,34.78
2022-08-11T15:04:36.546Z,34.67
2022-08-11T15:07:05.639Z,34.72
2022-08-11T15:10:11.652Z,34.79
2022-08-11T15:12:37.174Z,34.89
2022-08-11T15:15:26.350Z,34.95
2022-08-11T15:17:58.684Z,35.14
2022-08-11T15:20:47.669Z,35.29
2022-08-11T15:23:40.320Z,35.49
2022-08-11T15:26:15.424Z,35.68
2022-08-11T15:29:12.146Z,35.76
2022-08-11T15:31:49.133Z,35.77
2022-08-11T15:34:40.858Z,35.89
2022-08-11T15:37:26.895Z,35.91
2022-08-11T15:40:30.008Z,35.83
2022-08-11T15:43:33.625Z,35.63
2022-08-11T15:46:11.787Z,35.70
2022-08-11T15:49:03.794Z,35.79
2022-08-11T15:52:01.568Z,35.56
2022-08-11T15:54:33.666Z,35.34
2022-08-11T15:57:05.602Z,35.15
2022-08-11T15:59:56.713Z,35.06
2022-08-11T16:02:36.135Z,34.96
2022-08-11T16:05:11.758Z,35.04
2022-08-11T16:07:43.286Z,35.20
2022-08-11T16:10:19.562Z,35.26
2022-08-11T16:13:07.722Z,35.21
2022-08-11T16:16:08.151Z,35.11
2022-08-11T16:19:01.542Z,35.16
2022-08-11T16:21:40.055Z,35.13
2022-08-11T16:27:04.503Z,35.06
2022-08-11T16:27:13.592Z,35.08
2022-08-11T16:29:47.975Z,35.06
2022-08-11T16:32:23.224Z,35.12
2022-08-11T16:35:27.977Z,35.17
2022-08-11T16:38:16.165Z,35.07
2022-08-11T16:40:46.948Z,34.83
2022-08-11T16:43:39.569Z,34.62
2022-08-11T16:46:27.801Z,34.51
2022-08-11T16:48:57.936Z,34.47
2022-08-11T16:51:28.855Z,34.54
2022-08-11T16:54:05.844Z,34.56
2022-08-11T16:56:54.040Z,34.53
2022-08-11T16:59:31.851Z,34.49
2022-08-11T17:02:11.787Z,34.46
2022-08-11T17:05:18.584Z,34.50
2022-08-11T17:08:05.583Z,34.44
2022-08-11T17:11:06.857Z,34.33
2022-08-11T17:13:44.655Z,34.12
2022-08-11T17:16:19.283Z,33.95
2022-08-11T17:19:08.844Z,33.79
2022-08-11T17:22:06.156Z,33.67
2022-08-11T17:24:43.747Z,33.73
2022-08-11T17:27:17.069Z,33.70
2022-08-11T17:29:56.557Z,33.62
2022-08-11T17:32:55.625Z,33.47
2022-08-11T17:35:32.801Z,33.43
2022-08-11T17:38:14.656Z,33.37
2022-08-11T17:41:06.701Z,33.43
2022-08-11T17:43:53.303Z,33.59
2022-08-11T17:46:40.340Z,33.67
2022-08-11T17:49:13.844Z,33.77
2022-08-11T17:52:03.884Z,33.87
2022-08-11T17:54:52.924Z,33.96
2022-08-11T17:57:47.661Z,33.92
2022-08-11T18:00:17.067Z,33.75
2022-08-11T18:03:06.709Z,33.52
2022-08-11T18:05:43.537Z,33.30
2022-08-11T18:08:33.289Z,33.04
2022-08-11T18:12:06.756Z,32.78
2022-08-11T18:14:31.237Z,32.61
2022-08-11T18:17:17.694Z,32.36
2022-08-11T18:20:04.227Z,32.13
2022-08-11T18:22:56.869Z,31.94
2022-08-11T18:25:51.590Z,31.74
2022-08-11T18:28:48.802Z,31.50
2022-08-11T18:31:39.371Z,31.23
2022-08-11T18:34:32.357Z,30.99
2022-08-11T18:37:29.525Z,30.77
2022-08-11T18:40:22.471Z,30.55
2022-08-11T18:43:13.567Z,30.38
2022-08-11T18:46:06.751Z,30.18
2022-08-11T18:48:58.703Z,30.00
2022-08-11T18:51:46.987Z,29.78
2022-08-11T18:54:35.984Z,29.60
2022-08-11T18:57:26.533Z,29.38
2022-08-11T19:00:18.082Z,29.13
2022-08-11T19:03:09.181Z,28.91
2022-08-11T19:06:37.303Z,28.63
2022-08-11T19:09:13.465Z,28.40
2022-08-11T19:12:01.953Z,28.18
2022-08-11T19:14:53.345Z,28.00
2022-08-11T19:17:45.958Z,27.80
2022-08-11T19:20:38.198Z,27.62
2022-08-11T19:23:29.677Z,27.44
2022-08-11T19:26:18.850Z,27.25
2022-08-11T19:29:08.881Z,27.05
2022-08-11T19:32:18.249Z,26.83
2022-08-11T19:35:07.914Z,26.67
2022-08-11T19:37:57.172Z,26.49
2022-08-11T19:40:44.074Z,26.34
2022-08-11T19:43:32.568Z,26.17
2022-08-11T19:46:20.757Z,26.02
2022-08-11T19:49:12.849Z,25.86
2022-08-11T19:52:02.556Z,25.68
2022-08-11T19:54:52.864Z,25.54
2022-08-11T19:57:43.409Z,25.39
2022-08-11T20:00:38.919Z,25.28
2022-08-11T20:03:29.711Z,25.18
2022-08-11T20:06:23.513Z,25.10
2022-08-11T20:09:14.759Z,24.99
2022-08-11T20:12:11.833Z,24.89
2022-08-11T20:15:01.893Z,24.79
2022-08-11T20:17:57.678Z,24.70
2022-08-11T20:20:46.631Z,24.61
2022-08-11T20:23:36.582Z,24.50
2022-08-11T20:26:31.117Z,24.41
2022-08-11T20:29:20.382Z,24.30
2022-08-11T20:32:09.292Z,24.20
2022-08-11T20:34:57.999Z,24.11
2022-08-11T20:37:50.750Z,24.01
2022-08-11T20:40:44.300Z,23.92
2022-08-11T20:44:08.349Z,23.82
2022-08-11T20:46:48.104Z,23.69
2022-08-11T20:52:48.608Z,23.48
2022-08-11T20:55:51.998Z,23.39
2022-08-11T20:59:13.412Z,23.29
2022-08-11T21:01:52.159Z,23.18
2022-08-11T21:04:54.910Z,23.09
2022-08-11T21:07:55.456Z,22.99
2022-08-11T21:10:57.686Z,22.90
2022-08-11T21:13:53.514Z,22.83
2022-08-11T21:16:53.864Z,22.78
2022-08-11T21:20:01.893Z,22.70
2022-08-11T21:23:05.236Z,22.59
2022-08-11T21:26:03.891Z,22.50
2022-08-11T21:28:53.543Z,22.42
2022-08-11T21:31:42.534Z,22.36
2022-08-11T21:34:37.210Z,22.29
2022-08-11T21:37:26.365Z,22.22
2022-08-11T21:40:17.522Z,22.17
2022-08-11T21:43:07.274Z,22.11
2022-08-11T21:45:57.683Z,22.06
2022-08-11T21:48:48.448Z,22.02
2022-08-11T21:51:34.505Z,22.00
2022-08-11T21:54:22.154Z,21.93
2022-08-11T21:57:09.541Z,21.90
2022-08-11T22:00:09.650Z,21.86
2022-08-11T22:03:03.406Z,21.82
2022-08-11T22:05:53.304Z,21.79
2022-08-11T22:08:39.324Z,21.76
2022-08-11T22:11:32.345Z,21.73
2022-08-11T22:14:22.410Z,21.71
2022-08-11T22:17:09.435Z,21.68
2022-08-11T22:20:00.683Z,21.65
2022-08-11T22:22:52.230Z,21.56
2022-08-11T22:25:50.831Z,21.52
2022-08-11T22:28:38.759Z,21.49
2022-08-11T22:31:28.407Z,21.47
2022-08-11T22:34:14.928Z,21.42
2022-08-11T22:37:04.789Z,21.39
2022-08-11T22:40:01.632Z,21.34
2022-08-11T22:42:52.906Z,21.27
2022-08-11T22:45:41.477Z,21.22
2022-08-11T22:48:30.478Z,21.17
2022-08-11T22:51:18.992Z,21.12
2022-08-11T22:54:08.017Z,21.05
2022-08-11T22:56:55.032Z,21.00
2022-08-11T22:59:43.068Z,20.96
2022-08-11T23:02:30.605Z,20.90
2022-08-11T23:05:24.244Z,20.86
2022-08-11T23:08:10.884Z,20.80
2022-08-11T23:10:59.184Z,20.74
2022-08-11T23:13:47.165Z,20.68
2022-08-11T23:16:33.501Z,20.63
2022-08-11T23:20:08.361Z,20.56
2022-08-11T23:22:36.723Z,20.47
2022-08-11T23:25:29.888Z,20.43
2022-08-11T23:28:19.870Z,20.42
2022-08-11T23:31:09.389Z,20.38
2022-08-11T23:34:00.888Z,20.36
2022-08-11T23:36:47.994Z,20.33
2022-08-11T23:39:35.391Z,20.32
2022-08-11T23:42:26.286Z,20.31
2022-08-11T23:45:17.474Z,20.32
2022-08-11T23:48:06.924Z,20.30
2022-08-11T23:50:54.255Z,20.30
2022-08-11T23:53:40.590Z,20.30
2022-08-11T23:56:29.246Z,20.28
2022-08-11T23:59:23.779Z,20.27
